TAF KMTJ
KMTJ 090537Z 0906/1006 16005KT P6SM BKN040 OVC060 FM091800 24010KT 3SM -SHRA BR SCT030 BKN040 FM092200 18011KT 2SM -SHRA BR SCT016 OVC030 FM100000 16010KT 1 1/2SM -RA BR SCT011 OVC027 WS020/22035KT FM100500 21011KT 2SM -SHRASN BR SCT007 OVC024 WS015/23030KT=
METAR KMTJ
WC KMTJ
WS KMTJ
WV KMTJ